sensor_id;sensor_type;location;lat;lon;timestamp;P1;durP1;ratioP1;P2;durP2;ratioP2
24337;SDS011;12457;50.832;4.346;2022-12-08T00:01:31;47.25;;;28.77;;
24337;SDS011;12457;50.832;4.346;2022-12-08T00:03:58;50.08;;;30.10;;
24337;SDS011;12457;50.832;4.346;2022-12-08T00:09:21;46.95;;;29.35;;
24337;SDS011;12457;50.832;4.346;2022-12-08T00:11:59;39.15;;;27.83;;
24337;SDS011;12457;50.832;4.346;2022-12-08T00:14:36;44.28;;;27.73;;
24337;SDS011;12457;50.832;4.346;2022-12-08T00:17:05;51.13;;;29.13;;
24337;SDS011;12457;50.832;4.346;2022-12-08T00:19:32;46.28;;;28.00;;
24337;SDS011;12457;50.832;4.346;2022-12-08T00:21:58;49.35;;;27.90;;
24337;SDS011;12457;50.832;4.346;2022-12-08T00:24:24;45.85;;;26.90;;
24337;SDS011;12457;50.832;4.346;2022-12-08T00:26:55;43.92;;;26.95;;
24337;SDS011;12457;50.832;4.346;2022-12-08T00:29:21;45.70;;;26.63;;
24337;SDS011;12457;50.832;4.346;2022-12-08T00:31:46;50.40;;;28.17;;
24337;SDS011;12457;50.832;4.346;2022-12-08T00:34:12;43.03;;;26.83;;
24337;SDS011;12457;50.832;4.346;2022-12-08T00:36:39;46.22;;;27.98;;
24337;SDS011;12457;50.832;4.346;2022-12-08T00:39:05;44.22;;;26.95;;
24337;SDS011;12457;50.832;4.346;2022-12-08T00:41:31;46.25;;;26.83;;
24337;SDS011;12457;50.832;4.346;2022-12-08T00:44:16;47.65;;;27.77;;
24337;SDS011;12457;50.832;4.346;2022-12-08T00:46:45;47.63;;;28.50;;
24337;SDS011;12457;50.832;4.346;2022-12-08T00:49:11;43.88;;;28.13;;
24337;SDS011;12457;50.832;4.346;2022-12-08T00:51:37;47.60;;;28.73;;
24337;SDS011;12457;50.832;4.346;2022-12-08T00:54:04;49.45;;;28.77;;
24337;SDS011;12457;50.832;4.346;2022-12-08T00:56:30;46.95;;;27.90;;
24337;SDS011;12457;50.832;4.346;2022-12-08T00:58:57;50.10;;;30.10;;
24337;SDS011;12457;50.832;4.346;2022-12-08T01:01:22;51.38;;;29.73;;
24337;SDS011;12457;50.832;4.346;2022-12-08T01:03:48;46.85;;;30.25;;
24337;SDS011;12457;50.832;4.346;2022-12-08T01:06:14;45.35;;;28.25;;
24337;SDS011;12457;50.832;4.346;2022-12-08T01:08:40;46.65;;;29.70;;
24337;SDS011;12457;50.832;4.346;2022-12-08T01:11:07;56.97;;;31.30;;
24337;SDS011;12457;50.832;4.346;2022-12-08T01:13:37;55.58;;;31.35;;
24337;SDS011;12457;50.832;4.346;2022-12-08T01:16:04;49.00;;;30.33;;
24337;SDS011;12457;50.832;4.346;2022-12-08T01:18:30;57.95;;;30.58;;
24337;SDS011;12457;50.832;4.346;2022-12-08T01:21:03;58.22;;;30.83;;
24337;SDS011;12457;50.832;4.346;2022-12-08T01:23:29;51.08;;;29.73;;
24337;SDS011;12457;50.832;4.346;2022-12-08T01:25:59;52.92;;;31.52;;
24337;SDS011;12457;50.832;4.346;2022-12-08T01:28:29;55.17;;;31.63;;
24337;SDS011;12457;50.832;4.346;2022-12-08T01:30:56;54.55;;;31.77;;
24337;SDS011;12457;50.832;4.346;2022-12-08T01:33:23;64.10;;;30.80;;
24337;SDS011;12457;50.832;4.346;2022-12-08T01:35:49;59.95;;;32.20;;
24337;SDS011;12457;50.832;4.346;2022-12-08T01:38:15;60.55;;;33.20;;
24337;SDS011;12457;50.832;4.346;2022-12-08T01:40:41;57.97;;;33.25;;
24337;SDS011;12457;50.832;4.346;2022-12-08T01:43:09;67.68;;;34.95;;
24337;SDS011;12457;50.832;4.346;2022-12-08T01:45:41;64.45;;;33.65;;
24337;SDS011;12457;50.832;4.346;2022-12-08T01:48:08;56.67;;;33.72;;
24337;SDS011;12457;50.832;4.346;2022-12-08T01:50:42;65.13;;;35.05;;
24337;SDS011;12457;50.832;4.346;2022-12-08T01:53:18;61.92;;;35.25;;
24337;SDS011;12457;50.832;4.346;2022-12-08T01:55:58;66.43;;;36.67;;
24337;SDS011;12457;50.832;4.346;2022-12-08T01:58:30;61.00;;;35.40;;
24337;SDS011;12457;50.832;4.346;2022-12-08T02:01:00;61.03;;;34.70;;
24337;SDS011;12457;50.832;4.346;2022-12-08T02:03:27;71.00;;;36.03;;
24337;SDS011;12457;50.832;4.346;2022-12-08T02:05:58;62.83;;;35.22;;
24337;SDS011;12457;50.832;4.346;2022-12-08T02:08:23;59.45;;;33.17;;
24337;SDS011;12457;50.832;4.346;2022-12-08T02:10:51;59.17;;;34.95;;
24337;SDS011;12457;50.832;4.346;2022-12-08T02:13:18;69.88;;;35.20;;
24337;SDS011;12457;50.832;4.346;2022-12-08T02:37:29;55.25;;;35.25;;
24337;SDS011;12457;50.832;4.346;2022-12-08T02:40:05;67.72;;;35.42;;
24337;SDS011;12457;50.832;4.346;2022-12-08T02:45:24;54.50;;;32.70;;
24337;SDS011;12457;50.832;4.346;2022-12-08T02:47:57;58.42;;;32.65;;
24337;SDS011;12457;50.832;4.346;2022-12-08T02:50:24;58.22;;;33.35;;
24337;SDS011;12457;50.832;4.346;2022-12-08T02:52:50;55.05;;;32.65;;
24337;SDS011;12457;50.832;4.346;2022-12-08T02:55:21;64.50;;;32.13;;
24337;SDS011;12457;50.832;4.346;2022-12-08T03:01:24;56.75;;;32.17;;
24337;SDS011;12457;50.832;4.346;2022-12-08T03:03:59;63.00;;;34.10;;
24337;SDS011;12457;50.832;4.346;2022-12-08T03:14:50;62.88;;;33.97;;
24337;SDS011;12457;50.832;4.346;2022-12-08T03:17:18;68.32;;;34.13;;
24337;SDS011;12457;50.832;4.346;2022-12-08T03:19:48;58.30;;;32.30;;
24337;SDS011;12457;50.832;4.346;2022-12-08T03:22:15;56.72;;;31.95;;
24337;SDS011;12457;50.832;4.346;2022-12-08T03:24:45;56.13;;;32.00;;
24337;SDS011;12457;50.832;4.346;2022-12-08T03:27:19;58.88;;;32.60;;
24337;SDS011;12457;50.832;4.346;2022-12-08T03:29:48;53.95;;;31.60;;
24337;SDS011;12457;50.832;4.346;2022-12-08T03:34:47;57.97;;;32.88;;
24337;SDS011;12457;50.832;4.346;2022-12-08T03:37:13;58.83;;;31.73;;
24337;SDS011;12457;50.832;4.346;2022-12-08T03:39:39;55.08;;;32.00;;
24337;SDS011;12457;50.832;4.346;2022-12-08T03:42:05;64.70;;;32.05;;
24337;SDS011;12457;50.832;4.346;2022-12-08T03:44:31;56.72;;;33.22;;
24337;SDS011;12457;50.832;4.346;2022-12-08T03:46:57;53.08;;;30.27;;
24337;SDS011;12457;50.832;4.346;2022-12-08T03:49:23;57.83;;;30.77;;
24337;SDS011;12457;50.832;4.346;2022-12-08T03:51:48;58.83;;;30.17;;
24337;SDS011;12457;50.832;4.346;2022-12-08T03:54:14;52.40;;;30.60;;
24337;SDS011;12457;50.832;4.346;2022-12-08T03:56:40;57.20;;;31.02;;
24337;SDS011;12457;50.832;4.346;2022-12-08T03:59:06;52.67;;;30.33;;
24337;SDS011;12457;50.832;4.346;2022-12-08T04:01:32;56.60;;;30.88;;
24337;SDS011;12457;50.832;4.346;2022-12-08T04:03:58;51.47;;;29.83;;
24337;SDS011;12457;50.832;4.346;2022-12-08T04:06:24;50.55;;;30.95;;
24337;SDS011;12457;50.832;4.346;2022-12-08T04:08:50;47.47;;;29.77;;
24337;SDS011;12457;50.832;4.346;2022-12-08T04:11:16;49.20;;;29.92;;
24337;SDS011;12457;50.832;4.346;2022-12-08T04:13:43;52.33;;;29.63;;
24337;SDS011;12457;50.832;4.346;2022-12-08T04:16:19;47.45;;;28.48;;
24337;SDS011;12457;50.832;4.346;2022-12-08T04:18:46;54.13;;;30.10;;
24337;SDS011;12457;50.832;4.346;2022-12-08T04:21:12;49.67;;;28.27;;
24337;SDS011;12457;50.832;4.346;2022-12-08T04:23:38;51.30;;;30.40;;
24337;SDS011;12457;50.832;4.346;2022-12-08T04:26:04;46.00;;;28.88;;
24337;SDS011;12457;50.832;4.346;2022-12-08T04:28:30;47.72;;;28.85;;
24337;SDS011;12457;50.832;4.346;2022-12-08T04:30:56;58.08;;;30.85;;
24337;SDS011;12457;50.832;4.346;2022-12-08T04:33:22;49.13;;;29.30;;
24337;SDS011;12457;50.832;4.346;2022-12-08T04:35:48;56.30;;;29.83;;
24337;SDS011;12457;50.832;4.346;2022-12-08T04:38:14;52.63;;;29.15;;
24337;SDS011;12457;50.832;4.346;2022-12-08T04:40:43;54.97;;;30.48;;
24337;SDS011;12457;50.832;4.346;2022-12-08T04:43:09;53.53;;;29.35;;
24337;SDS011;12457;50.832;4.346;2022-12-08T04:45:38;49.85;;;29.83;;
24337;SDS011;12457;50.832;4.346;2022-12-08T04:48:05;50.42;;;30.02;;
24337;SDS011;12457;50.832;4.346;2022-12-08T04:50:32;57.75;;;30.33;;
24337;SDS011;12457;50.832;4.346;2022-12-08T04:52:57;49.30;;;28.58;;
24337;SDS011;12457;50.832;4.346;2022-12-08T04:55:23;50.28;;;28.60;;
24337;SDS011;12457;50.832;4.346;2022-12-08T04:57:49;54.20;;;28.95;;
24337;SDS011;12457;50.832;4.346;2022-12-08T05:00:15;47.63;;;28.05;;
24337;SDS011;12457;50.832;4.346;2022-12-08T05:02:41;46.67;;;28.45;;
24337;SDS011;12457;50.832;4.346;2022-12-08T05:05:06;44.15;;;27.17;;
24337;SDS011;12457;50.832;4.346;2022-12-08T05:07:32;53.63;;;27.30;;
24337;SDS011;12457;50.832;4.346;2022-12-08T05:09:58;47.83;;;26.95;;
24337;SDS011;12457;50.832;4.346;2022-12-08T05:12:24;45.63;;;27.30;;
24337;SDS011;12457;50.832;4.346;2022-12-08T05:14:50;54.53;;;28.25;;
24337;SDS011;12457;50.832;4.346;2022-12-08T05:17:16;51.97;;;27.90;;
24337;SDS011;12457;50.832;4.346;2022-12-08T05:19:42;53.58;;;29.75;;
24337;SDS011;12457;50.832;4.346;2022-12-08T05:22:08;47.22;;;27.02;;
24337;SDS011;12457;50.832;4.346;2022-12-08T05:24:33;46.40;;;26.73;;
24337;SDS011;12457;50.832;4.346;2022-12-08T05:26:59;50.22;;;26.48;;
24337;SDS011;12457;50.832;4.346;2022-12-08T05:29:26;55.25;;;29.42;;
24337;SDS011;12457;50.832;4.346;2022-12-08T05:31:52;46.90;;;26.75;;
24337;SDS011;12457;50.832;4.346;2022-12-08T05:34:17;46.25;;;26.45;;
24337;SDS011;12457;50.832;4.346;2022-12-08T05:36:43;49.95;;;25.92;;
24337;SDS011;12457;50.832;4.346;2022-12-08T05:39:11;44.55;;;25.50;;
24337;SDS011;12457;50.832;4.346;2022-12-08T05:41:38;42.45;;;24.42;;
24337;SDS011;12457;50.832;4.346;2022-12-08T05:44:04;41.30;;;24.50;;
24337;SDS011;12457;50.832;4.346;2022-12-08T05:46:30;43.05;;;24.90;;
24337;SDS011;12457;50.832;4.346;2022-12-08T05:48:57;44.47;;;23.58;;
24337;SDS011;12457;50.832;4.346;2022-12-08T05:51:24;45.83;;;25.95;;
24337;SDS011;12457;50.832;4.346;2022-12-08T05:53:50;49.20;;;25.95;;
24337;SDS011;12457;50.832;4.346;2022-12-08T05:56:16;52.60;;;27.23;;
24337;SDS011;12457;50.832;4.346;2022-12-08T05:58:43;49.33;;;25.23;;
24337;SDS011;12457;50.832;4.346;2022-12-08T06:03:44;41.42;;;24.35;;
24337;SDS011;12457;50.832;4.346;2022-12-08T06:06:10;53.22;;;25.20;;
24337;SDS011;12457;50.832;4.346;2022-12-08T06:08:35;42.47;;;24.15;;
24337;SDS011;12457;50.832;4.346;2022-12-08T06:11:01;48.42;;;25.33;;
24337;SDS011;12457;50.832;4.346;2022-12-08T06:13:27;48.05;;;24.85;;
24337;SDS011;12457;50.832;4.346;2022-12-08T06:15:52;43.70;;;24.63;;
24337;SDS011;12457;50.832;4.346;2022-12-08T06:18:18;47.00;;;23.58;;
24337;SDS011;12457;50.832;4.346;2022-12-08T06:20:44;44.78;;;24.52;;
24337;SDS011;12457;50.832;4.346;2022-12-08T06:23:10;51.85;;;23.73;;
24337;SDS011;12457;50.832;4.346;2022-12-08T06:25:35;43.60;;;22.98;;
24337;SDS011;12457;50.832;4.346;2022-12-08T06:28:03;46.58;;;25.83;;
24337;SDS011;12457;50.832;4.346;2022-12-08T06:30:30;50.08;;;23.15;;
24337;SDS011;12457;50.832;4.346;2022-12-08T06:32:55;41.58;;;23.10;;
24337;SDS011;12457;50.832;4.346;2022-12-08T06:35:21;43.22;;;23.27;;
24337;SDS011;12457;50.832;4.346;2022-12-08T06:37:46;43.45;;;22.70;;
24337;SDS011;12457;50.832;4.346;2022-12-08T06:40:12;37.67;;;22.17;;
24337;SDS011;12457;50.832;4.346;2022-12-08T06:42:38;43.58;;;23.20;;
24337;SDS011;12457;50.832;4.346;2022-12-08T06:45:11;38.20;;;20.85;;
24337;SDS011;12457;50.832;4.346;2022-12-08T06:47:39;39.13;;;22.35;;
24337;SDS011;12457;50.832;4.346;2022-12-08T06:50:05;42.60;;;23.15;;
24337;SDS011;12457;50.832;4.346;2022-12-08T06:52:31;36.38;;;22.67;;
24337;SDS011;12457;50.832;4.346;2022-12-08T06:54:57;40.45;;;21.00;;
24337;SDS011;12457;50.832;4.346;2022-12-08T06:57:22;34.80;;;21.02;;
24337;SDS011;12457;50.832;4.346;2022-12-08T06:59:48;39.72;;;21.40;;
24337;SDS011;12457;50.832;4.346;2022-12-08T07:02:14;39.40;;;20.05;;
24337;SDS011;12457;50.832;4.346;2022-12-08T07:04:41;32.88;;;20.55;;
24337;SDS011;12457;50.832;4.346;2022-12-08T07:07:07;34.13;;;20.73;;
24337;SDS011;12457;50.832;4.346;2022-12-08T07:09:32;42.47;;;20.35;;
24337;SDS011;12457;50.832;4.346;2022-12-08T07:11:58;38.13;;;19.35;;
24337;SDS011;12457;50.832;4.346;2022-12-08T07:14:23;34.35;;;19.73;;
24337;SDS011;12457;50.832;4.346;2022-12-08T07:16:50;40.08;;;20.15;;
24337;SDS011;12457;50.832;4.346;2022-12-08T07:19:16;33.65;;;19.52;;
24337;SDS011;12457;50.832;4.346;2022-12-08T07:21:42;33.90;;;20.63;;
24337;SDS011;12457;50.832;4.346;2022-12-08T07:24:08;49.10;;;22.38;;
24337;SDS011;12457;50.832;4.346;2022-12-08T07:26:34;40.75;;;20.65;;
24337;SDS011;12457;50.832;4.346;2022-12-08T07:28:59;44.17;;;20.90;;
24337;SDS011;12457;50.832;4.346;2022-12-08T07:31:25;35.88;;;19.30;;
24337;SDS011;12457;50.832;4.346;2022-12-08T07:33:52;43.63;;;21.38;;
24337;SDS011;12457;50.832;4.346;2022-12-08T07:36:19;38.33;;;20.92;;
24337;SDS011;12457;50.832;4.346;2022-12-08T07:38:45;51.03;;;20.90;;
24337;SDS011;12457;50.832;4.346;2022-12-08T07:41:11;36.08;;;21.55;;
24337;SDS011;12457;50.832;4.346;2022-12-08T07:43:40;50.42;;;21.27;;
24337;SDS011;12457;50.832;4.346;2022-12-08T07:46:06;37.22;;;21.13;;
24337;SDS011;12457;50.832;4.346;2022-12-08T07:48:32;46.00;;;21.15;;
24337;SDS011;12457;50.832;4.346;2022-12-08T07:51:01;42.03;;;21.58;;
24337;SDS011;12457;50.832;4.346;2022-12-08T07:53:28;43.42;;;21.63;;
24337;SDS011;12457;50.832;4.346;2022-12-08T07:55:54;46.05;;;21.30;;
24337;SDS011;12457;50.832;4.346;2022-12-08T07:58:20;36.20;;;21.33;;
24337;SDS011;12457;50.832;4.346;2022-12-08T08:00:45;44.75;;;21.77;;
24337;SDS011;12457;50.832;4.346;2022-12-08T08:03:11;41.10;;;21.80;;
24337;SDS011;12457;50.832;4.346;2022-12-08T08:05:37;38.22;;;21.52;;
24337;SDS011;12457;50.832;4.346;2022-12-08T08:08:03;38.15;;;22.75;;
24337;SDS011;12457;50.832;4.346;2022-12-08T08:10:28;44.17;;;22.48;;
24337;SDS011;12457;50.832;4.346;2022-12-08T08:12:58;45.30;;;21.77;;
24337;SDS011;12457;50.832;4.346;2022-12-08T08:15:24;46.50;;;21.30;;
24337;SDS011;12457;50.832;4.346;2022-12-08T08:17:50;40.15;;;20.33;;
24337;SDS011;12457;50.832;4.346;2022-12-08T08:20:16;43.13;;;21.40;;
24337;SDS011;12457;50.832;4.346;2022-12-08T08:22:46;51.15;;;22.80;;
24337;SDS011;12457;50.832;4.346;2022-12-08T08:25:14;45.80;;;22.55;;
24337;SDS011;12457;50.832;4.346;2022-12-08T08:27:40;38.20;;;20.15;;
24337;SDS011;12457;50.832;4.346;2022-12-08T08:30:07;49.13;;;21.30;;
24337;SDS011;12457;50.832;4.346;2022-12-08T08:32:34;55.60;;;21.13;;
24337;SDS011;12457;50.832;4.346;2022-12-08T08:35:00;46.05;;;21.63;;
24337;SDS011;12457;50.832;4.346;2022-12-08T08:37:26;36.35;;;20.73;;
24337;SDS011;12457;50.832;4.346;2022-12-08T08:39:51;41.90;;;20.58;;
24337;SDS011;12457;50.832;4.346;2022-12-08T08:42:17;50.53;;;22.83;;
24337;SDS011;12457;50.832;4.346;2022-12-08T08:44:43;46.22;;;23.50;;
24337;SDS011;12457;50.832;4.346;2022-12-08T08:47:09;39.80;;;22.27;;
24337;SDS011;12457;50.832;4.346;2022-12-08T08:49:35;46.70;;;22.20;;
24337;SDS011;12457;50.832;4.346;2022-12-08T08:52:00;44.30;;;22.17;;
24337;SDS011;12457;50.832;4.346;2022-12-08T08:54:27;43.05;;;21.42;;
24337;SDS011;12457;50.832;4.346;2022-12-08T08:56:53;43.88;;;21.40;;
24337;SDS011;12457;50.832;4.346;2022-12-08T08:59:20;45.85;;;21.73;;
24337;SDS011;12457;50.832;4.346;2022-12-08T09:01:46;41.80;;;21.55;;
24337;SDS011;12457;50.832;4.346;2022-12-08T09:04:12;43.03;;;21.73;;
24337;SDS011;12457;50.832;4.346;2022-12-08T09:06:37;48.85;;;21.38;;
24337;SDS011;12457;50.832;4.346;2022-12-08T09:09:03;47.28;;;22.48;;
24337;SDS011;12457;50.832;4.346;2022-12-08T09:11:30;49.45;;;21.75;;
24337;SDS011;12457;50.832;4.346;2022-12-08T09:13:56;44.30;;;20.92;;
24337;SDS011;12457;50.832;4.346;2022-12-08T09:16:21;40.92;;;20.90;;
24337;SDS011;12457;50.832;4.346;2022-12-08T09:18:47;40.88;;;21.05;;
24337;SDS011;12457;50.832;4.346;2022-12-08T09:21:14;44.63;;;21.52;;
24337;SDS011;12457;50.832;4.346;2022-12-08T09:23:44;42.72;;;21.27;;
24337;SDS011;12457;50.832;4.346;2022-12-08T09:26:10;43.03;;;20.08;;
24337;SDS011;12457;50.832;4.346;2022-12-08T09:28:36;42.53;;;21.77;;
24337;SDS011;12457;50.832;4.346;2022-12-08T09:31:02;46.17;;;20.73;;
24337;SDS011;12457;50.832;4.346;2022-12-08T09:33:28;35.25;;;19.42;;
24337;SDS011;12457;50.832;4.346;2022-12-08T09:35:53;41.55;;;19.05;;
24337;SDS011;12457;50.832;4.346;2022-12-08T09:38:19;35.92;;;18.92;;
24337;SDS011;12457;50.832;4.346;2022-12-08T09:40:51;37.15;;;19.42;;
24337;SDS011;12457;50.832;4.346;2022-12-08T09:43:39;44.42;;;19.63;;
24337;SDS011;12457;50.832;4.346;2022-12-08T09:46:27;39.15;;;19.00;;
24337;SDS011;12457;50.832;4.346;2022-12-08T09:48:56;40.53;;;18.88;;
24337;SDS011;12457;50.832;4.346;2022-12-08T09:51:24;39.97;;;20.75;;
24337;SDS011;12457;50.832;4.346;2022-12-08T09:56:32;54.45;;;20.33;;
24337;SDS011;12457;50.832;4.346;2022-12-08T10:01:41;43.63;;;18.75;;
24337;SDS011;12457;50.832;4.346;2022-12-08T10:04:17;47.58;;;19.70;;
24337;SDS011;12457;50.832;4.346;2022-12-08T10:17:59;34.67;;;18.67;;
24337;SDS011;12457;50.832;4.346;2022-12-08T10:20:34;44.90;;;18.52;;
24337;SDS011;12457;50.832;4.346;2022-12-08T10:25:43;37.88;;;17.77;;
24337;SDS011;12457;50.832;4.346;2022-12-08T10:28:11;32.10;;;17.48;;
24337;SDS011;12457;50.832;4.346;2022-12-08T10:30:37;40.40;;;18.77;;
24337;SDS011;12457;50.832;4.346;2022-12-08T10:33:03;42.45;;;18.38;;
24337;SDS011;12457;50.832;4.346;2022-12-08T10:35:43;34.13;;;17.38;;
24337;SDS011;12457;50.832;4.346;2022-12-08T10:38:15;56.92;;;24.20;;
24337;SDS011;12457;50.832;4.346;2022-12-08T10:40:51;43.95;;;20.90;;
24337;SDS011;12457;50.832;4.346;2022-12-08T10:43:25;41.85;;;17.90;;
24337;SDS011;12457;50.832;4.346;2022-12-08T10:45:52;36.05;;;18.25;;
24337;SDS011;12457;50.832;4.346;2022-12-08T10:48:21;47.30;;;21.95;;
24337;SDS011;12457;50.832;4.346;2022-12-08T10:53:30;45.22;;;20.25;;
24337;SDS011;12457;50.832;4.346;2022-12-08T11:01:16;73.35;;;32.92;;
24337;SDS011;12457;50.832;4.346;2022-12-08T11:06:42;37.53;;;19.45;;
24337;SDS011;12457;50.832;4.346;2022-12-08T11:14:21;31.27;;;19.13;;
24337;SDS011;12457;50.832;4.346;2022-12-08T11:19:36;35.28;;;19.50;;
24337;SDS011;12457;50.832;4.346;2022-12-08T11:22:23;36.45;;;18.75;;
24337;SDS011;12457;50.832;4.346;2022-12-08T11:27:35;45.33;;;20.40;;
24337;SDS011;12457;50.832;4.346;2022-12-08T11:30:14;37.95;;;17.73;;
24337;SDS011;12457;50.832;4.346;2022-12-08T11:32:46;31.83;;;16.42;;
24337;SDS011;12457;50.832;4.346;2022-12-08T11:35:19;24.35;;;15.35;;
24337;SDS011;12457;50.832;4.346;2022-12-08T11:37:54;27.83;;;15.25;;
24337;SDS011;12457;50.832;4.346;2022-12-08T11:40:35;47.10;;;17.60;;
24337;SDS011;12457;50.832;4.346;2022-12-08T11:46:01;30.23;;;16.35;;
24337;SDS011;12457;50.832;4.346;2022-12-08T11:56:43;29.23;;;15.02;;
24337;SDS011;12457;50.832;4.346;2022-12-08T12:02:03;31.48;;;15.05;;
24337;SDS011;12457;50.832;4.346;2022-12-08T12:04:37;34.08;;;14.43;;
24337;SDS011;12457;50.832;4.346;2022-12-08T12:20:25;162.38;;;83.50;;
24337;SDS011;12457;50.832;4.346;2022-12-08T12:23:03;36.67;;;16.85;;
24337;SDS011;12457;50.832;4.346;2022-12-08T12:25:33;39.55;;;22.00;;
24337;SDS011;12457;50.832;4.346;2022-12-08T12:28:02;27.02;;;15.35;;
24337;SDS011;12457;50.832;4.346;2022-12-08T12:30:53;26.35;;;14.38;;
24337;SDS011;12457;50.832;4.346;2022-12-08T12:33:37;36.45;;;15.00;;
24337;SDS011;12457;50.832;4.346;2022-12-08T12:36:06;27.15;;;14.20;;
24337;SDS011;12457;50.832;4.346;2022-12-08T12:38:37;31.25;;;14.07;;
24337;SDS011;12457;50.832;4.346;2022-12-08T12:52:02;29.95;;;13.55;;
24337;SDS011;12457;50.832;4.346;2022-12-08T12:54:34;28.13;;;11.48;;
24337;SDS011;12457;50.832;4.346;2022-12-08T12:59:39;21.50;;;11.70;;
24337;SDS011;12457;50.832;4.346;2022-12-08T13:04:55;25.33;;;12.95;;
24337;SDS011;12457;50.832;4.346;2022-12-08T13:07:28;29.95;;;13.02;;
24337;SDS011;12457;50.832;4.346;2022-12-08T13:10:06;35.08;;;13.38;;
24337;SDS011;12457;50.832;4.346;2022-12-08T13:13:00;25.88;;;12.70;;
24337;SDS011;12457;50.832;4.346;2022-12-08T13:15:27;43.72;;;17.30;;
24337;SDS011;12457;50.832;4.346;2022-12-08T13:18:05;30.83;;;14.90;;
24337;SDS011;12457;50.832;4.346;2022-12-08T13:20:41;41.85;;;20.10;;
24337;SDS011;12457;50.832;4.346;2022-12-08T13:25:50;25.85;;;11.98;;
24337;SDS011;12457;50.832;4.346;2022-12-08T13:33:15;25.00;;;13.30;;
24337;SDS011;12457;50.832;4.346;2022-12-08T13:36:00;33.90;;;12.80;;
24337;SDS011;12457;50.832;4.346;2022-12-08T13:38:29;29.20;;;14.05;;
24337;SDS011;12457;50.832;4.346;2022-12-08T13:40:56;31.63;;;14.45;;
24337;SDS011;12457;50.832;4.346;2022-12-08T13:43:29;28.73;;;12.40;;
24337;SDS011;12457;50.832;4.346;2022-12-08T13:46:04;18.13;;;10.80;;
24337;SDS011;12457;50.832;4.346;2022-12-08T13:48:47;21.75;;;12.02;;
24337;SDS011;12457;50.832;4.346;2022-12-08T13:51:19;22.33;;;11.38;;
24337;SDS011;12457;50.832;4.346;2022-12-08T13:54:00;23.17;;;12.27;;
24337;SDS011;12457;50.832;4.346;2022-12-08T13:56:33;21.65;;;10.63;;
24337;SDS011;12457;50.832;4.346;2022-12-08T14:01:45;15.60;;;9.25;;
24337;SDS011;12457;50.832;4.346;2022-12-08T14:04:14;14.32;;;8.48;;
24337;SDS011;12457;50.832;4.346;2022-12-08T14:06:46;18.88;;;8.70;;
24337;SDS011;12457;50.832;4.346;2022-12-08T14:09:15;21.60;;;9.30;;
24337;SDS011;12457;50.832;4.346;2022-12-08T14:11:44;18.08;;;9.73;;
24337;SDS011;12457;50.832;4.346;2022-12-08T14:14:40;23.85;;;9.05;;
24337;SDS011;12457;50.832;4.346;2022-12-08T14:17:11;19.27;;;9.18;;
24337;SDS011;12457;50.832;4.346;2022-12-08T14:20:00;17.52;;;9.43;;
24337;SDS011;12457;50.832;4.346;2022-12-08T14:22:31;24.52;;;10.88;;
24337;SDS011;12457;50.832;4.346;2022-12-08T14:24:58;20.15;;;9.93;;
24337;SDS011;12457;50.832;4.346;2022-12-08T14:27:25;19.20;;;10.82;;
24337;SDS011;12457;50.832;4.346;2022-12-08T14:29:54;18.67;;;10.85;;
24337;SDS011;12457;50.832;4.346;2022-12-08T14:32:51;17.40;;;9.93;;
24337;SDS011;12457;50.832;4.346;2022-12-08T14:35:23;21.13;;;10.73;;
24337;SDS011;12457;50.832;4.346;2022-12-08T14:38:03;21.08;;;12.77;;
24337;SDS011;12457;50.832;4.346;2022-12-08T14:41:00;26.27;;;13.68;;
24337;SDS011;12457;50.832;4.346;2022-12-08T14:43:30;19.73;;;10.50;;
24337;SDS011;12457;50.832;4.346;2022-12-08T14:45:58;18.48;;;9.90;;
24337;SDS011;12457;50.832;4.346;2022-12-08T14:50:58;20.17;;;11.60;;
24337;SDS011;12457;50.832;4.346;2022-12-08T14:56:13;18.92;;;11.93;;
24337;SDS011;12457;50.832;4.346;2022-12-08T14:59:00;23.00;;;10.90;;
24337;SDS011;12457;50.832;4.346;2022-12-08T15:01:29;19.10;;;10.65;;
24337;SDS011;12457;50.832;4.346;2022-12-08T15:04:17;23.58;;;11.93;;
24337;SDS011;12457;50.832;4.346;2022-12-08T15:07:30;16.65;;;10.65;;
24337;SDS011;12457;50.832;4.346;2022-12-08T15:09:48;19.83;;;11.05;;
24337;SDS011;12457;50.832;4.346;2022-12-08T15:12:32;21.52;;;12.02;;
24337;SDS011;12457;50.832;4.346;2022-12-08T15:15:00;21.98;;;11.02;;
24337;SDS011;12457;50.832;4.346;2022-12-08T15:17:42;17.75;;;12.32;;
24337;SDS011;12457;50.832;4.346;2022-12-08T15:23:05;28.23;;;11.68;;
24337;SDS011;12457;50.832;4.346;2022-12-08T15:25:41;21.67;;;11.35;;
24337;SDS011;12457;50.832;4.346;2022-12-08T15:28:08;17.48;;;10.75;;
24337;SDS011;12457;50.832;4.346;2022-12-08T15:30:38;20.60;;;11.23;;
24337;SDS011;12457;50.832;4.346;2022-12-08T15:33:03;16.33;;;11.02;;
24337;SDS011;12457;50.832;4.346;2022-12-08T15:35:29;18.65;;;10.98;;
24337;SDS011;12457;50.832;4.346;2022-12-08T15:37:55;19.77;;;10.57;;
24337;SDS011;12457;50.832;4.346;2022-12-08T15:40:21;20.13;;;11.82;;
24337;SDS011;12457;50.832;4.346;2022-12-08T15:42:47;18.90;;;12.20;;
24337;SDS011;12457;50.832;4.346;2022-12-08T15:45:14;20.52;;;10.05;;
24337;SDS011;12457;50.832;4.346;2022-12-08T15:47:41;22.55;;;11.50;;
24337;SDS011;12457;50.832;4.346;2022-12-08T15:50:14;14.60;;;10.75;;
24337;SDS011;12457;50.832;4.346;2022-12-08T15:52:42;20.70;;;12.45;;
24337;SDS011;12457;50.832;4.346;2022-12-08T15:55:11;26.48;;;12.07;;
24337;SDS011;12457;50.832;4.346;2022-12-08T15:57:38;18.35;;;12.63;;
24337;SDS011;12457;50.832;4.346;2022-12-08T16:00:05;26.80;;;14.25;;
24337;SDS011;12457;50.832;4.346;2022-12-08T16:02:31;24.48;;;14.93;;
24337;SDS011;12457;50.832;4.346;2022-12-08T16:04:56;17.27;;;11.27;;
24337;SDS011;12457;50.832;4.346;2022-12-08T16:07:26;17.20;;;10.25;;
24337;SDS011;12457;50.832;4.346;2022-12-08T16:09:53;11.48;;;8.40;;
24337;SDS011;12457;50.832;4.346;2022-12-08T16:12:20;17.90;;;10.57;;
24337;SDS011;12457;50.832;4.346;2022-12-08T16:15:06;14.52;;;8.52;;
24337;SDS011;12457;50.832;4.346;2022-12-08T16:17:32;11.88;;;7.43;;
24337;SDS011;12457;50.832;4.346;2022-12-08T16:19:59;10.48;;;7.65;;
24337;SDS011;12457;50.832;4.346;2022-12-08T16:22:26;28.75;;;17.17;;
24337;SDS011;12457;50.832;4.346;2022-12-08T16:24:53;23.33;;;13.68;;
24337;SDS011;12457;50.832;4.346;2022-12-08T16:27:20;14.35;;;9.52;;
24337;SDS011;12457;50.832;4.346;2022-12-08T16:29:54;32.42;;;22.20;;
24337;SDS011;12457;50.832;4.346;2022-12-08T16:32:21;15.85;;;10.75;;
24337;SDS011;12457;50.832;4.346;2022-12-08T16:34:47;12.82;;;9.18;;
24337;SDS011;12457;50.832;4.346;2022-12-08T16:37:14;15.15;;;9.00;;
24337;SDS011;12457;50.832;4.346;2022-12-08T16:39:46;15.70;;;10.55;;
24337;SDS011;12457;50.832;4.346;2022-12-08T16:42:16;19.92;;;10.80;;
24337;SDS011;12457;50.832;4.346;2022-12-08T16:45:03;14.45;;;10.93;;
24337;SDS011;12457;50.832;4.346;2022-12-08T16:47:32;14.98;;;10.73;;
24337;SDS011;12457;50.832;4.346;2022-12-08T16:49:58;18.38;;;11.25;;
24337;SDS011;12457;50.832;4.346;2022-12-08T16:52:24;16.45;;;10.98;;
24337;SDS011;12457;50.832;4.346;2022-12-08T16:54:50;22.48;;;11.85;;
24337;SDS011;12457;50.832;4.346;2022-12-08T16:57:15;18.08;;;11.38;;
24337;SDS011;12457;50.832;4.346;2022-12-08T16:59:41;21.45;;;14.05;;